Time;durP1;ratioP1;P1;durP2;ratioP2;P2;SDS_P1;SDS_P2;PMS_P1;PMS_P2;Temp;Humidity;BMP_temperature;BMP_pressure;BME280_temperature;BME280_humidity;BME280_pressure;Samples;Min_cycle;Max_cycle;Signal;HPM_P1;HPM_P2
2022/04/09 00:00:17;;;;;;;10.18;4.28;;;;;;;;;;4938456;29;20027;-49
2022/04/09 00:02:43;;;;;;;8.65;2.92;;;;;;;;;;4937882;29;20381;-52
2022/04/09 00:05:11;;;;;;;4.93;1.98;;;;;;;;;;4939222;29;20055;-53
2022/04/09 00:07:37;;;;;;;7.95;3.20;;;;;;;;;;4938836;29;20124;-54
2022/04/09 00:10:07;;;;;;;4.22;1.70;;;;;;;;;;4938316;29;20457;-50
2022/04/09 00:12:33;;;;;;;5.55;1.85;;;;;;;;;;4939095;29;20122;-48
2022/04/09 00:15:00;;;;;;;7.65;2.17;;;;;;;;;;4938773;29;20376;-51
2022/04/09 00:17:26;;;;;;;8.23;3.30;;;;;;;;;;4938965;29;20032;-53
2022/04/09 00:19:52;;;;;;;6.13;1.80;;;;;;;;;;4938865;29;20020;-49
2022/04/09 00:22:19;;;;;;;7.18;1.92;;;;;;;;;;4938575;29;20040;-49
2022/04/09 00:24:45;;;;;;;6.75;2.25;;;;;;;;;;4938902;29;20035;-50
2022/04/09 00:27:13;;;;;;;6.95;2.08;;;;;;;;;;4938579;29;20028;-54
2022/04/09 00:29:39;;;;;;;8.23;1.70;;;;;;;;;;4938151;29;20500;-49
2022/04/09 00:32:06;;;;;;;8.45;2.47;;;;;;;;;;4938902;29;20031;-50
2022/04/09 00:34:32;;;;;;;6.65;2.20;;;;;;;;;;4938436;29;20050;-54
2022/04/09 00:36:58;;;;;;;6.00;2.10;;;;;;;;;;4938411;29;20509;-51
2022/04/09 00:39:24;;;;;;;6.30;1.85;;;;;;;;;;4938353;29;20027;-49
2022/04/09 00:41:51;;;;;;;8.25;2.42;;;;;;;;;;4938293;29;20035;-54
2022/04/09 00:44:18;;;;;;;9.48;2.20;;;;;;;;;;4938554;29;20027;-52
2022/04/09 00:46:45;;;;;;;11.40;3.42;;;;;;;;;;4938506;29;20032;-54
2022/04/09 00:49:11;;;;;;;7.05;2.33;;;;;;;;;;4938043;29;20023;-50
2022/04/09 00:51:39;;;;;;;5.18;2.45;;;;;;;;;;4938076;29;20043;-51
2022/04/09 00:54:06;;;;;;;6.60;2.75;;;;;;;;;;4938365;29;20020;-52
2022/04/09 00:56:33;;;;;;;5.95;2.40;;;;;;;;;;4938041;29;20032;-50
2022/04/09 00:59:02;;;;;;;7.88;2.50;;;;;;;;;;4937970;29;20466;-51
2022/04/09 01:01:29;;;;;;;10.02;2.90;;;;;;;;;;4937905;29;20031;-51
2022/04/09 01:03:56;;;;;;;9.88;2.78;;;;;;;;;;4937811;29;20035;-53
2022/04/09 01:06:22;;;;;;;10.23;2.53;;;;;;;;;;4938127;29;20023;-48
2022/04/09 01:08:48;;;;;;;6.32;2.85;;;;;;;;;;4938099;29;20028;-50
2022/04/09 01:11:15;;;;;;;6.05;3.13;;;;;;;;;;4937805;29;20385;-52
2022/04/09 01:13:41;;;;;;;10.60;3.67;;;;;;;;;;4938206;29;20035;-49
2022/04/09 01:16:08;;;;;;;10.05;3.85;;;;;;;;;;4937883;29;20027;-53
2022/04/09 01:18:34;;;;;;;11.95;4.05;;;;;;;;;;4937580;29;20055;-51
2022/04/09 01:21:01;;;;;;;9.35;4.10;;;;;;;;;;4937471;29;20536;-52
2022/04/09 01:23:28;;;;;;;10.85;3.90;;;;;;;;;;4937306;29;20473;-50
2022/04/09 01:25:56;;;;;;;9.10;3.92;;;;;;;;;;4937406;29;20119;-53
2022/04/09 01:28:22;;;;;;;7.60;3.42;;;;;;;;;;4937725;29;20046;-50
2022/04/09 01:30:48;;;;;;;11.60;3.10;;;;;;;;;;4937375;29;20032;-52
2022/04/09 01:33:17;;;;;;;7.95;2.80;;;;;;;;;;4938411;29;20028;-52
2022/04/09 01:35:44;;;;;;;11.32;3.40;;;;;;;;;;4937576;29;20031;-49
2022/04/09 01:38:10;;;;;;;8.68;3.78;;;;;;;;;;4937373;29;20028;-49
2022/04/09 01:40:37;;;;;;;9.60;3.40;;;;;;;;;;4937470;29;20040;-49
2022/04/09 01:43:03;;;;;;;9.82;3.05;;;;;;;;;;4937378;29;20051;-53
2022/04/09 01:45:30;;;;;;;9.65;3.38;;;;;;;;;;4937056;29;20034;-50
2022/04/09 01:47:56;;;;;;;12.40;2.72;;;;;;;;;;4937332;29;20035;-51
2022/04/09 01:50:22;;;;;;;11.57;2.70;;;;;;;;;;4937271;29;20032;-52
2022/04/09 01:52:48;;;;;;;7.13;2.42;;;;;;;;;;4937113;29;20138;-49
2022/04/09 01:55:15;;;;;;;6.95;2.33;;;;;;;;;;4936894;29;20043;-53
2022/04/09 01:57:41;;;;;;;5.25;1.60;;;;;;;;;;4936924;29;20421;-53
2022/04/09 02:00:10;;;;;;;5.80;1.48;;;;;;;;;;4936595;29;20019;-47
2022/04/09 02:02:36;;;;;;;7.38;1.98;;;;;;;;;;4936696;29;20410;-52
2022/04/09 02:05:02;;;;;;;6.32;1.67;;;;;;;;;;4937098;29;20071;-48
2022/04/09 02:07:28;;;;;;;5.50;1.60;;;;;;;;;;4936668;29;20023;-49
2022/04/09 02:09:55;;;;;;;5.00;1.38;;;;;;;;;;4936820;29;20024;-49
2022/04/09 02:12:21;;;;;;;6.50;2.05;;;;;;;;;;4936700;29;20022;-50
2022/04/09 02:14:47;;;;;;;5.55;1.42;;;;;;;;;;4936637;29;20107;-54
2022/04/09 02:17:13;;;;;;;4.78;1.38;;;;;;;;;;4937142;29;20034;-50
2022/04/09 02:19:40;;;;;;;4.65;1.27;;;;;;;;;;4936558;29;20051;-50
2022/04/09 02:22:06;;;;;;;6.40;1.65;;;;;;;;;;4936542;29;20054;-49
2022/04/09 02:24:33;;;;;;;3.90;1.35;;;;;;;;;;4936502;29;20374;-49
2022/04/09 02:26:59;;;;;;;5.25;1.92;;;;;;;;;;4934998;29;20421;-52
2022/04/09 02:29:25;;;;;;;5.85;1.30;;;;;;;;;;4936757;29;20126;-54
2022/04/09 02:31:51;;;;;;;7.85;1.85;;;;;;;;;;4936617;29;20034;-49
2022/04/09 02:34:17;;;;;;;6.10;1.75;;;;;;;;;;4935799;29;20031;-50
2022/04/09 02:36:44;;;;;;;5.57;1.60;;;;;;;;;;4936900;29;20028;-51
2022/04/09 02:39:10;;;;;;;5.25;1.63;;;;;;;;;;4936312;29;20068;-48
2022/04/09 02:41:37;;;;;;;5.70;1.30;;;;;;;;;;4936159;29;20028;-50
2022/04/09 02:44:03;;;;;;;5.57;1.30;;;;;;;;;;4936568;29;20024;-50
2022/04/09 02:46:29;;;;;;;5.95;1.27;;;;;;;;;;4936580;29;20024;-51
2022/04/09 02:48:55;;;;;;;4.70;1.25;;;;;;;;;;4935889;29;20024;-48
2022/04/09 02:51:21;;;;;;;7.38;1.70;;;;;;;;;;4936330;29;20055;-50
2022/04/09 02:53:47;;;;;;;9.35;1.58;;;;;;;;;;4937326;29;20039;-54
2022/04/09 02:56:13;;;;;;;5.32;1.48;;;;;;;;;;4936442;29;20079;-53
2022/04/09 02:58:39;;;;;;;5.82;1.60;;;;;;;;;;4936198;29;20032;-50
2022/04/09 03:01:06;;;;;;;5.28;1.40;;;;;;;;;;4936523;29;20023;-53
2022/04/09 03:03:32;;;;;;;3.75;1.35;;;;;;;;;;4936152;29;20032;-47
2022/04/09 03:05:58;;;;;;;5.15;1.42;;;;;;;;;;4936392;29;20032;-51
2022/04/09 03:08:24;;;;;;;6.53;1.45;;;;;;;;;;4936331;29;20019;-52
2022/04/09 03:10:51;;;;;;;6.88;1.73;;;;;;;;;;4936075;29;20035;-49
2022/04/09 03:13:17;;;;;;;5.10;1.48;;;;;;;;;;4936301;29;20123;-50
2022/04/09 03:15:43;;;;;;;8.23;1.48;;;;;;;;;;4935679;29;20027;-52
2022/04/09 03:18:10;;;;;;;4.80;1.48;;;;;;;;;;4936225;29;20090;-49
2022/04/09 03:20:37;;;;;;;7.28;1.92;;;;;;;;;;4935853;29;20028;-50
2022/04/09 03:23:03;;;;;;;6.75;1.52;;;;;;;;;;4935584;29;20036;-51
2022/04/09 03:25:29;;;;;;;7.45;1.90;;;;;;;;;;4936207;29;20028;-53
2022/04/09 03:27:55;;;;;;;6.30;1.85;;;;;;;;;;4935874;29;20020;-52
2022/04/09 03:30:21;;;;;;;8.90;1.80;;;;;;;;;;4935590;29;20103;-51
2022/04/09 03:32:48;;;;;;;5.90;1.90;;;;;;;;;;4936208;29;20040;-49
2022/04/09 03:35:14;;;;;;;5.47;1.80;;;;;;;;;;4936334;29;20036;-52
2022/04/09 03:37:41;;;;;;;9.82;3.55;;;;;;;;;;4935877;29;20083;-52
2022/04/09 03:40:08;;;;;;;7.18;3.33;;;;;;;;;;4935940;29;20103;-50
2022/04/09 03:42:34;;;;;;;7.45;2.83;;;;;;;;;;4936026;29;20389;-50
2022/04/09 03:45:01;;;;;;;8.50;2.80;;;;;;;;;;4937097;29;20027;-52
2022/04/09 03:47:27;;;;;;;15.50;3.75;;;;;;;;;;4939600;29;20032;-53
2022/04/09 03:49:53;;;;;;;11.25;4.20;;;;;;;;;;4939513;29;20035;-50
2022/04/09 03:52:19;;;;;;;11.65;2.85;;;;;;;;;;4939190;29;20055;-53
2022/04/09 03:54:45;;;;;;;10.63;2.88;;;;;;;;;;4939482;29;20034;-53
2022/04/09 03:57:11;;;;;;;5.35;1.65;;;;;;;;;;4939546;29;20024;-52
2022/04/09 03:59:37;;;;;;;6.25;1.70;;;;;;;;;;4938857;29;20358;-53
2022/04/09 04:02:03;;;;;;;13.07;2.55;;;;;;;;;;4939343;29;20028;-53
2022/04/09 04:04:30;;;;;;;9.35;2.05;;;;;;;;;;4938544;29;20038;-53
2022/04/09 04:06:56;;;;;;;7.57;1.92;;;;;;;;;;4939239;29;20027;-52
2022/04/09 04:09:22;;;;;;;6.20;1.90;;;;;;;;;;4939202;29;20024;-53
2022/04/09 04:11:48;;;;;;;7.13;1.92;;;;;;;;;;4939096;29;20035;-53
2022/04/09 04:14:14;;;;;;;7.97;2.42;;;;;;;;;;4938356;29;20027;-52
2022/04/09 04:16:40;;;;;;;8.23;2.17;;;;;;;;;;4938928;29;20028;-54
2022/04/09 04:19:06;;;;;;;11.07;3.08;;;;;;;;;;4938938;29;20027;-52
2022/04/09 04:21:32;;;;;;;10.75;3.05;;;;;;;;;;4938884;29;20086;-49
2022/04/09 04:23:59;;;;;;;10.68;2.47;;;;;;;;;;4938549;29;20032;-53
2022/04/09 04:26:26;;;;;;;7.88;2.65;;;;;;;;;;4938247;29;20377;-51
2022/04/09 04:28:52;;;;;;;5.72;2.00;;;;;;;;;;4938520;29;20020;-51
2022/04/09 04:31:19;;;;;;;13.27;2.50;;;;;;;;;;4938512;29;20036;-50
2022/04/09 04:33:45;;;;;;;10.93;2.13;;;;;;;;;;4938626;29;20051;-52
2022/04/09 04:36:11;;;;;;;6.97;2.30;;;;;;;;;;4938241;29;20024;-54
2022/04/09 04:38:37;;;;;;;10.98;2.30;;;;;;;;;;4938911;29;20028;-52
2022/04/09 04:41:04;;;;;;;7.20;2.40;;;;;;;;;;4938265;29;20035;-51
2022/04/09 04:43:31;;;;;;;6.10;2.15;;;;;;;;;;4938497;29;20477;-53
2022/04/09 04:45:57;;;;;;;10.10;1.60;;;;;;;;;;4938312;29;20477;-51
2022/04/09 04:48:23;;;;;;;5.80;1.98;;;;;;;;;;4938218;29;20023;-53
2022/04/09 04:50:50;;;;;;;8.07;1.77;;;;;;;;;;4938170;29;20035;-49
2022/04/09 04:53:16;;;;;;;8.13;2.10;;;;;;;;;;4938555;29;20059;-50
2022/04/09 04:55:42;;;;;;;6.78;2.33;;;;;;;;;;4937882;29;20031;-52
2022/04/09 04:58:08;;;;;;;4.85;1.75;;;;;;;;;;4937419;29;20027;-53
2022/04/09 05:00:35;;;;;;;6.80;1.58;;;;;;;;;;4937571;29;20500;-54
2022/04/09 05:03:01;;;;;;;4.90;1.60;;;;;;;;;;4937831;29;20605;-52
2022/04/09 05:05:27;;;;;;;9.35;2.17;;;;;;;;;;4938375;29;20032;-52
2022/04/09 05:07:54;;;;;;;10.27;2.28;;;;;;;;;;4937552;29;20030;-54
2022/04/09 05:10:21;;;;;;;7.05;1.88;;;;;;;;;;4937750;29;20473;-49
2022/04/09 05:12:48;;;;;;;19.00;3.30;;;;;;;;;;4937927;29;20042;-50
2022/04/09 05:15:15;;;;;;;9.18;2.10;;;;;;;;;;4937786;29;20024;-54
2022/04/09 05:17:41;;;;;;;15.45;3.20;;;;;;;;;;4937501;29;20079;-52
2022/04/09 05:20:09;;;;;;;7.70;2.45;;;;;;;;;;4937942;29;20114;-50
2022/04/09 05:22:41;;;;;;;12.57;2.10;;;;;;;;;;4937467;29;20350;-52
2022/04/09 05:25:08;;;;;;;8.80;2.25;;;;;;;;;;4937472;29;20028;-51
2022/04/09 05:27:35;;;;;;;9.07;2.10;;;;;;;;;;4937629;29;20028;-52
2022/04/09 05:30:01;;;;;;;6.13;1.60;;;;;;;;;;4937118;29;20027;-53
2022/04/09 05:32:27;;;;;;;9.40;2.50;;;;;;;;;;4937603;29;20578;-56
2022/04/09 05:34:53;;;;;;;7.88;2.53;;;;;;;;;;4937211;29;20067;-53
2022/04/09 05:37:20;;;;;;;7.95;1.77;;;;;;;;;;4937265;29;20028;-53
2022/04/09 05:39:47;;;;;;;10.85;1.63;;;;;;;;;;4938132;29;20051;-54
2022/04/09 05:42:13;;;;;;;8.63;2.05;;;;;;;;;;4937301;29;20095;-54
2022/04/09 05:44:40;;;;;;;11.63;1.95;;;;;;;;;;4937214;29;20031;-55
2022/04/09 05:47:06;;;;;;;7.45;1.80;;;;;;;;;;4937752;29;20362;-51
2022/04/09 05:49:32;;;;;;;7.53;2.50;;;;;;;;;;4936998;29;20035;-51
2022/04/09 05:51:58;;;;;;;6.22;3.30;;;;;;;;;;4937440;29;20469;-51
2022/04/09 05:54:27;;;;;;;9.90;3.08;;;;;;;;;;4936914;29;20053;-51
2022/04/09 05:56:53;;;;;;;8.10;3.42;;;;;;;;;;4937134;29;20457;-53
2022/04/09 05:59:20;;;;;;;11.85;4.15;;;;;;;;;;4937173;29;20019;-52
2022/04/09 06:01:46;;;;;;;13.30;4.00;;;;;;;;;;4936724;29;20023;-52
2022/04/09 06:04:14;;;;;;;12.55;3.67;;;;;;;;;;4936875;29;20176;-51
2022/04/09 06:06:40;;;;;;;8.23;2.78;;;;;;;;;;4936693;29;20032;-55
2022/04/09 06:09:06;;;;;;;4.97;2.38;;;;;;;;;;4935994;29;20385;-53
2022/04/09 06:11:32;;;;;;;13.25;5.22;;;;;;;;;;4936176;29;20413;-54
2022/04/09 06:13:58;;;;;;;10.45;3.80;;;;;;;;;;4936571;29;20031;-52
2022/04/09 06:16:25;;;;;;;12.15;4.18;;;;;;;;;;4936811;29;20038;-54
2022/04/09 06:18:51;;;;;;;10.80;4.95;;;;;;;;;;4934502;29;20417;-53
2022/04/09 06:21:17;;;;;;;14.40;4.40;;;;;;;;;;4936475;29;20385;-55
2022/04/09 06:23:43;;;;;;;7.95;3.25;;;;;;;;;;4936739;29;20082;-53
2022/04/09 06:26:09;;;;;;;16.45;3.50;;;;;;;;;;4936442;29;20067;-51
2022/04/09 06:28:36;;;;;;;8.98;2.67;;;;;;;;;;4936680;29;20023;-57
2022/04/09 06:31:02;;;;;;;4.45;2.63;;;;;;;;;;4936521;29;20027;-54
2022/04/09 06:33:28;;;;;;;6.07;2.63;;;;;;;;;;4936202;29;20066;-52
2022/04/09 06:35:54;;;;;;;5.05;2.50;;;;;;;;;;4936182;29;20496;-50
2022/04/09 06:38:20;;;;;;;5.22;2.25;;;;;;;;;;4936639;29;20028;-48
2022/04/09 06:40:46;;;;;;;7.18;2.45;;;;;;;;;;4936247;29;20087;-53
2022/04/09 06:43:12;;;;;;;9.15;3.03;;;;;;;;;;4936322;29;20035;-50
2022/04/09 06:45:38;;;;;;;10.48;2.60;;;;;;;;;;4936064;29;20038;-50
2022/04/09 06:48:05;;;;;;;8.00;2.20;;;;;;;;;;4936656;29;20023;-53
2022/04/09 06:50:31;;;;;;;10.40;3.15;;;;;;;;;;4936153;29;20103;-56
2022/04/09 06:52:57;;;;;;;8.85;2.83;;;;;;;;;;4936232;29;20056;-50
2022/04/09 06:55:23;;;;;;;8.70;2.15;;;;;;;;;;4935722;29;20020;-54
2022/04/09 06:57:49;;;;;;;26.23;3.20;;;;;;;;;;4935635;29;20078;-46
2022/04/09 07:00:15;;;;;;;6.95;1.83;;;;;;;;;;4933652;29;20019;-47
2022/04/09 07:02:42;;;;;;;7.82;2.90;;;;;;;;;;4935143;29;20063;-48
2022/04/09 07:05:08;;;;;;;8.40;3.35;;;;;;;;;;4935774;29;20127;-49
2022/04/09 07:07:34;;;;;;;9.40;4.43;;;;;;;;;;4936078;29;20035;-47
2022/04/09 07:10:05;;;;;;;14.65;6.10;;;;;;;;;;4935379;29;20059;-47
2022/04/09 07:12:31;;;;;;;24.77;8.77;;;;;;;;;;4936213;29;20481;-48
2022/04/09 07:14:58;;;;;;;20.92;8.23;;;;;;;;;;4934534;29;20038;-49
2022/04/09 07:17:24;;;;;;;25.63;10.20;;;;;;;;;;4935323;29;20031;-47
2022/04/09 07:19:51;;;;;;;21.35;9.88;;;;;;;;;;4936144;29;20604;-47
2022/04/09 07:22:17;;;;;;;19.63;8.60;;;;;;;;;;4938785;29;20551;-48
2022/04/09 07:24:45;;;;;;;16.35;6.78;;;;;;;;;;4938970;29;20032;-56
2022/04/09 07:27:11;;;;;;;15.13;6.38;;;;;;;;;;4939404;29;20038;-47
2022/04/09 07:29:37;;;;;;;12.48;5.63;;;;;;;;;;4939091;29;20027;-50
2022/04/09 07:32:03;;;;;;;12.85;3.80;;;;;;;;;;4939341;29;20405;-48
2022/04/09 07:34:29;;;;;;;23.83;17.05;;;;;;;;;;4939533;29;20107;-47
2022/04/09 07:36:55;;;;;;;9.52;5.63;;;;;;;;;;4939597;29;20019;-47
2022/04/09 07:39:21;;;;;;;11.52;8.63;;;;;;;;;;4939456;29;20062;-48
2022/04/09 07:41:48;;;;;;;8.05;7.00;;;;;;;;;;4939196;29;20071;-46
2022/04/09 07:44:14;;;;;;;13.80;6.50;;;;;;;;;;4939478;29;20162;-47
2022/04/09 07:46:40;;;;;;;16.58;3.10;;;;;;;;;;4939488;29;20037;-46
2022/04/09 07:49:06;;;;;;;9.60;5.28;;;;;;;;;;4939093;29;20020;-46
2022/04/09 07:51:32;;;;;;;5.32;3.03;;;;;;;;;;4938293;29;20497;-47
2022/04/09 07:53:58;;;;;;;6.53;2.50;;;;;;;;;;4937420;29;20035;-46
2022/04/09 07:56:25;;;;;;;11.13;3.42;;;;;;;;;;4938302;29;20031;-55
2022/04/09 07:58:52;;;;;;;5.53;2.55;;;;;;;;;;4938695;29;20035;-51
2022/04/09 08:01:18;;;;;;;5.88;2.50;;;;;;;;;;4939198;29;20036;-49
2022/04/09 08:03:44;;;;;;;8.15;2.20;;;;;;;;;;4938413;29;20031;-52
2022/04/09 08:06:10;;;;;;;11.45;2.90;;;;;;;;;;4939034;29;20031;-46
2022/04/09 08:08:37;;;;;;;5.13;2.08;;;;;;;;;;4939075;29;20108;-50
2022/04/09 08:11:03;;;;;;;7.38;2.30;;;;;;;;;;4938776;29;20024;-50
2022/04/09 08:13:29;;;;;;;9.45;2.38;;;;;;;;;;4938089;29;20389;-51
2022/04/09 08:15:55;;;;;;;10.60;6.13;;;;;;;;;;4938674;29;20392;-49
2022/04/09 08:18:21;;;;;;;14.25;5.45;;;;;;;;;;4938242;29;20030;-51
2022/04/09 08:20:47;;;;;;;15.20;8.55;;;;;;;;;;4939004;29;20028;-51
2022/04/09 08:23:13;;;;;;;32.92;15.02;;;;;;;;;;4938759;29;20031;-52
2022/04/09 08:25:39;;;;;;;17.83;8.05;;;;;;;;;;4938296;29;20030;-50
2022/04/09 08:28:06;;;;;;;6.03;2.97;;;;;;;;;;4938805;29;20027;-52
2022/04/09 08:30:32;;;;;;;11.52;4.40;;;;;;;;;;4938222;29;20095;-51
2022/04/09 08:33:03;;;;;;;14.05;5.10;;;;;;;;;;4937682;29;20055;-53
2022/04/09 08:35:29;;;;;;;12.23;6.67;;;;;;;;;;4938673;29;20027;-49
2022/04/09 08:37:56;;;;;;;14.32;5.88;;;;;;;;;;4938240;29;20250;-53
2022/04/09 08:40:22;;;;;;;17.30;6.60;;;;;;;;;;4938088;29;20023;-48
2022/04/09 08:42:49;;;;;;;21.00;8.15;;;;;;;;;;4938110;29;20114;-52
2022/04/09 08:45:15;;;;;;;16.58;7.65;;;;;;;;;;4936277;29;20031;-52
2022/04/09 08:47:42;;;;;;;18.13;6.80;;;;;;;;;;4938090;29;20024;-52
2022/04/09 08:50:11;;;;;;;16.05;5.47;;;;;;;;;;4938450;29;20036;-50
2022/04/09 08:52:41;;;;;;;11.10;4.28;;;;;;;;;;4937697;29;20055;-50
2022/04/09 08:55:12;;;;;;;11.57;5.03;;;;;;;;;;4936985;29;20413;-50
2022/04/09 08:57:39;;;;;;;15.90;6.00;;;;;;;;;;4936917;29;20032;-50
2022/04/09 09:00:13;;;;;;;15.85;5.03;;;;;;;;;;4937239;29;20023;-50
2022/04/09 09:02:49;;;;;;;11.57;5.55;;;;;;;;;;4937610;29;20038;-51
2022/04/09 09:05:52;;;;;;;9.38;4.35;;;;;;;;;;4938370;29;20078;-48
2022/04/09 09:08:35;;;;;;;11.80;4.22;;;;;;;;;;4917405;29;20095;-49
2022/04/09 09:11:01;;;;;;;11.02;3.80;;;;;;;;;;4938027;29;20028;-52
2022/04/09 09:13:28;;;;;;;10.73;4.00;;;;;;;;;;4937429;29;20027;-52
2022/04/09 09:15:55;;;;;;;10.57;3.78;;;;;;;;;;4936505;29;20059;-51
2022/04/09 09:18:32;;;;;;;9.07;3.65;;;;;;;;;;4937689;29;20028;-52
2022/04/09 09:21:01;;;;;;;10.02;4.25;;;;;;;;;;4937364;29;20119;-47
2022/04/09 09:23:28;;;;;;;17.95;3.78;;;;;;;;;;4937707;29;20023;-48
2022/04/09 09:25:55;;;;;;;8.38;3.28;;;;;;;;;;4937368;29;20020;-52
2022/04/09 09:28:23;;;;;;;12.32;4.68;;;;;;;;;;4937073;29;20083;-53
2022/04/09 09:30:49;;;;;;;8.30;3.67;;;;;;;;;;4937568;29;20122;-51
2022/04/09 09:33:15;;;;;;;11.40;4.03;;;;;;;;;;4936721;29;20028;-49
2022/04/09 09:35:48;;;;;;;8.70;4.30;;;;;;;;;;4936420;29;20069;-50
2022/04/09 09:38:18;;;;;;;11.23;3.92;;;;;;;;;;4936306;29;20027;-53
2022/04/09 09:40:44;;;;;;;7.70;3.38;;;;;;;;;;4935438;29;20037;-49
2022/04/09 09:43:17;;;;;;;10.00;3.30;;;;;;;;;;4935448;29;20388;-51
2022/04/09 09:45:47;;;;;;;9.75;4.25;;;;;;;;;;4935886;29;20068;-53
2022/04/09 09:48:22;;;;;;;9.52;3.78;;;;;;;;;;4935428;29;20019;-48
2022/04/09 09:50:49;;;;;;;9.15;2.80;;;;;;;;;;4933179;29;20043;-50
2022/04/09 09:53:15;;;;;;;10.48;2.97;;;;;;;;;;4935935;29;20047;-48
2022/04/09 09:55:45;;;;;;;7.32;2.97;;;;;;;;;;4935342;29;20027;-51
2022/04/09 09:58:17;;;;;;;11.35;3.47;;;;;;;;;;4934684;29;20020;-52
2022/04/09 10:00:44;;;;;;;7.35;3.08;;;;;;;;;;4935419;29;20453;-54
2022/04/09 10:03:13;;;;;;;7.97;3.30;;;;;;;;;;4935002;29;20034;-52
2022/04/09 10:05:40;;;;;;;7.22;3.03;;;;;;;;;;4935335;29;20437;-47
2022/04/09 10:08:07;;;;;;;10.43;3.25;;;;;;;;;;4935478;29;20087;-49
2022/04/09 10:10:37;;;;;;;7.85;3.15;;;;;;;;;;4935154;29;20020;-54
2022/04/09 10:13:05;;;;;;;6.90;2.85;;;;;;;;;;4935185;29;20027;-52
2022/04/09 10:15:31;;;;;;;5.47;2.88;;;;;;;;;;4934651;29;20445;-53
2022/04/09 10:17:59;;;;;;;6.00;3.05;;;;;;;;;;4936167;29;20035;-53
2022/04/09 10:20:25;;;;;;;7.35;2.50;;;;;;;;;;4936144;29;20039;-47
2022/04/09 10:22:53;;;;;;;6.55;2.22;;;;;;;;;;4936255;29;20038;-52
2022/04/09 10:25:27;;;;;;;4.97;2.60;;;;;;;;;;4936556;29;20028;-47
2022/04/09 10:28:01;;;;;;;4.53;2.00;;;;;;;;;;4936207;29;20481;-48
2022/04/09 10:30:29;;;;;;;4.95;1.70;;;;;;;;;;4935870;29;20034;-48
2022/04/09 10:32:59;;;;;;;12.95;2.40;;;;;;;;;;4936040;29;20026;-51
2022/04/09 10:35:28;;;;;;;8.77;2.50;;;;;;;;;;4935859;29;20028;-53
2022/04/09 10:38:10;;;;;;;7.10;3.00;;;;;;;;;;4935908;29;20537;-52
2022/04/09 10:40:37;;;;;;;6.78;3.50;;;;;;;;;;4935823;29;20042;-53
2022/04/09 10:43:05;;;;;;;26.25;14.20;;;;;;;;;;4936261;29;20035;-51
2022/04/09 10:45:54;;;;;;;11.57;5.18;;;;;;;;;;4935963;29;20035;-52
2022/04/09 10:48:29;;;;;;;13.38;6.03;;;;;;;;;;4934134;29;20026;-50
2022/04/09 10:50:58;;;;;;;13.15;6.00;;;;;;;;;;4935604;29;20032;-51
2022/04/09 10:53:28;;;;;;;9.18;5.05;;;;;;;;;;4915882;29;20131;-49
2022/04/09 10:56:14;;;;;;;14.23;5.63;;;;;;;;;;4916037;29;20043;-50
2022/04/09 10:58:59;;;;;;;14.38;5.75;;;;;;;;;;4916458;29;20052;-52
2022/04/09 11:04:34;;;;;;;11.07;4.40;;;;;;;;;;4916890;29;20039;-51
2022/04/09 11:07:01;;;;;;;9.27;3.78;;;;;;;;;;4917317;29;20489;-52
2022/04/09 11:09:27;;;;;;;16.02;5.30;;;;;;;;;;4917265;29;20075;-50
2022/04/09 11:12:04;;;;;;;9.48;4.43;;;;;;;;;;4916662;29;20032;-51
2022/04/09 11:14:30;;;;;;;12.13;3.88;;;;;;;;;;4917186;29;20049;-51
2022/04/09 11:16:58;;;;;;;10.75;3.72;;;;;;;;;;4917498;29;20039;-50
2022/04/09 11:19:24;;;;;;;11.55;3.65;;;;;;;;;;4916949;29;20028;-51
2022/04/09 11:21:51;;;;;;;12.88;4.40;;;;;;;;;;4917156;29;20028;-51
2022/04/09 11:24:17;;;;;;;14.05;5.68;;;;;;;;;;4916823;29;20103;-51
2022/04/09 11:26:54;;;;;;;13.20;6.95;;;;;;;;;;4916825;29;20021;-53
2022/04/09 11:29:21;;;;;;;15.15;6.53;;;;;;;;;;4916907;29;20111;-48
2022/04/09 11:31:47;;;;;;;18.27;7.88;;;;;;;;;;4917067;29;20065;-49
2022/04/09 11:34:14;;;;;;;15.32;7.65;;;;;;;;;;4915756;29;20426;-53
2022/04/09 11:36:40;;;;;;;16.20;7.93;;;;;;;;;;4915661;29;20028;-53
2022/04/09 11:39:06;;;;;;;13.43;7.13;;;;;;;;;;4916224;29;20028;-53
2022/04/09 11:41:33;;;;;;;17.55;7.05;;;;;;;;;;4916328;29;20426;-52
2022/04/09 11:44:00;;;;;;;11.25;5.82;;;;;;;;;;4916540;29;20032;-53
2022/04/09 11:46:32;;;;;;;13.18;5.85;;;;;;;;;;4916230;29;20028;-53
2022/04/09 11:49:01;;;;;;;15.82;6.20;;;;;;;;;;4916859;29;20028;-53
2022/04/09 11:51:36;;;;;;;13.65;5.50;;;;;;;;;;4920006;29;20048;-46
2022/04/09 11:54:17;;;;;;;21.48;7.03;;;;;;;;;;4934735;29;20020;-46
2022/04/09 11:56:44;;;;;;;16.05;6.05;;;;;;;;;;4935415;29;20556;-49
2022/04/09 11:59:15;;;;;;;10.43;5.53;;;;;;;;;;4934944;29;20034;-52
2022/04/09 12:01:45;;;;;;;11.48;5.35;;;;;;;;;;4935514;29;20039;-53
2022/04/09 12:04:13;;;;;;;5.68;2.85;;;;;;;;;;4936040;29;20024;-52
2022/04/09 12:06:39;;;;;;;5.90;3.00;;;;;;;;;;4936113;29;20028;-52
2022/04/09 12:09:06;;;;;;;6.78;3.08;;;;;;;;;;4938911;29;20418;-54
2022/04/09 12:11:42;;;;;;;8.18;3.50;;;;;;;;;;4938915;29;20043;-47
2022/04/09 12:14:13;;;;;;;9.65;3.30;;;;;;;;;;4938800;29;20023;-52
2022/04/09 12:16:39;;;;;;;8.18;3.63;;;;;;;;;;4938436;29;20028;-52
2022/04/09 12:19:09;;;;;;;11.43;3.42;;;;;;;;;;4939463;29;20047;-52
2022/04/09 12:21:37;;;;;;;7.13;2.88;;;;;;;;;;4938518;29;20477;-51
2022/04/09 12:24:08;;;;;;;11.20;3.17;;;;;;;;;;4938641;29;20020;-53
2022/04/09 12:26:36;;;;;;;5.15;2.42;;;;;;;;;;4938341;29;20059;-53
2022/04/09 12:29:06;;;;;;;8.10;2.50;;;;;;;;;;4938259;29;20024;-49
2022/04/09 12:31:36;;;;;;;;;;;;;;;;;;4938992;29;20028;-58
2022/04/09 12:34:20;;;;;;;7.80;2.70;;;;;;;;;;4936798;29;19906;-53
2022/04/09 12:37:01;;;;;;;5.47;2.70;;;;;;;;;;4937998;29;20063;-55
2022/04/09 12:39:28;;;;;;;9.43;3.37;;;;;;;;;;4938168;29;20024;-47
2022/04/09 12:41:55;;;;;;;10.50;4.50;;;;;;;;;;4938069;29;20281;-50
2022/04/09 12:44:25;;;;;;;9.25;3.08;;;;;;;;;;4937816;29;20024;-51
2022/04/09 12:46:53;;;;;;;10.73;3.88;;;;;;;;;;4938301;29;20160;-48
2022/04/09 12:49:19;;;;;;;10.88;4.07;;;;;;;;;;4937987;29;20474;-53
2022/04/09 12:51:46;;;;;;;9.80;3.38;;;;;;;;;;4937768;29;20078;-50
2022/04/09 12:54:12;;;;;;;13.85;4.22;;;;;;;;;;4937950;29;20024;-53
2022/04/09 12:56:40;;;;;;;12.25;4.32;;;;;;;;;;4937817;29;20082;-52
2022/04/09 12:59:17;;;;;;;15.65;5.72;;;;;;;;;;4937809;29;20336;-56
2022/04/09 13:01:44;;;;;;;13.85;4.57;;;;;;;;;;4937714;29;20032;-48
2022/04/09 13:04:10;;;;;;;14.82;3.38;;;;;;;;;;4937577;29;20470;-48
2022/04/09 13:06:40;;;;;;;16.25;3.38;;;;;;;;;;4937968;29;20028;-52
2022/04/09 13:09:10;;;;;;;9.13;2.50;;;;;;;;;;4937850;29;20139;-53
2022/04/09 13:11:36;;;;;;;15.55;3.70;;;;;;;;;;4937575;29;20031;-51
2022/04/09 13:14:03;;;;;;;9.90;2.35;;;;;;;;;;4937915;29;20041;-49
2022/04/09 13:16:29;;;;;;;6.05;2.25;;;;;;;;;;4937555;29;20083;-52
2022/04/09 13:18:55;;;;;;;9.77;3.10;;;;;;;;;;4936958;29;20038;-52
2022/04/09 13:21:21;;;;;;;9.18;2.70;;;;;;;;;;4937204;29;20031;-52
2022/04/09 13:23:47;;;;;;;8.15;2.60;;;;;;;;;;4937464;29;20042;-51
2022/04/09 13:26:13;;;;;;;11.77;2.60;;;;;;;;;;4937298;29;20028;-51
2022/04/09 13:28:39;;;;;;;5.75;2.65;;;;;;;;;;4937286;29;20078;-49
2022/04/09 13:31:06;;;;;;;6.78;2.50;;;;;;;;;;4937550;29;20034;-55
2022/04/09 13:33:32;;;;;;;8.77;2.55;;;;;;;;;;4937217;29;20485;-51
2022/04/09 13:35:58;;;;;;;7.00;2.90;;;;;;;;;;4937504;29;20039;-52
2022/04/09 13:38:24;;;;;;;12.02;3.50;;;;;;;;;;4937051;29;20039;-52
2022/04/09 13:40:50;;;;;;;9.30;4.50;;;;;;;;;;4937170;29;22285;-51
2022/04/09 13:43:17;;;;;;;15.05;4.15;;;;;;;;;;4937595;29;20118;-49
2022/04/09 13:45:43;;;;;;;7.05;2.67;;;;;;;;;;4936983;29;20036;-50
2022/04/09 13:48:09;;;;;;;7.80;3.50;;;;;;;;;;4937263;29;20385;-51
2022/04/09 13:50:36;;;;;;;6.82;2.85;;;;;;;;;;4937165;29;20060;-49
2022/04/09 13:53:03;;;;;;;9.25;3.13;;;;;;;;;;4936974;29;20055;-50
2022/04/09 13:55:29;;;;;;;8.85;3.72;;;;;;;;;;4936897;29;20031;-52
2022/04/09 13:57:55;;;;;;;9.82;3.53;;;;;;;;;;4937235;29;20098;-53
2022/04/09 14:00:21;;;;;;;14.73;4.93;;;;;;;;;;4936878;29;20075;-50
2022/04/09 14:02:48;;;;;;;14.98;5.22;;;;;;;;;;4937350;29;20469;-52
2022/04/09 14:05:14;;;;;;;14.55;3.40;;;;;;;;;;4936676;29;20501;-51
2022/04/09 14:07:41;;;;;;;12.50;4.10;;;;;;;;;;4936613;29;20039;-49
2022/04/09 14:10:09;;;;;;;10.43;4.30;;;;;;;;;;4935755;29;20119;-51
2022/04/09 14:12:36;;;;;;;11.15;3.50;;;;;;;;;;4936799;29;20028;-51
2022/04/09 14:15:02;;;;;;;11.18;4.47;;;;;;;;;;4936273;29;20028;-55
2022/04/09 14:17:28;;;;;;;8.98;2.22;;;;;;;;;;4936849;29;20023;-53
2022/04/09 14:19:55;;;;;;;5.93;2.33;;;;;;;;;;4936516;29;20030;-52
2022/04/09 14:22:21;;;;;;;7.07;2.60;;;;;;;;;;4936370;29;20035;-54
2022/04/09 14:24:47;;;;;;;6.88;3.22;;;;;;;;;;4937298;29;20028;-50
2022/04/09 14:27:13;;;;;;;10.35;1.90;;;;;;;;;;4936567;29;20063;-53
2022/04/09 14:29:39;;;;;;;4.75;1.83;;;;;;;;;;4934653;29;20032;-52
2022/04/09 14:32:06;;;;;;;7.22;1.70;;;;;;;;;;4936209;29;20557;-51
2022/04/09 14:34:32;;;;;;;5.95;1.90;;;;;;;;;;4936438;29;20035;-53
2022/04/09 14:36:58;;;;;;;8.55;2.80;;;;;;;;;;4935752;29;20028;-50
2022/04/09 14:39:24;;;;;;;6.50;2.00;;;;;;;;;;4936354;29;20024;-52
2022/04/09 14:41:53;;;;;;;5.68;2.00;;;;;;;;;;4935427;29;20031;-51